Eems Servant — PBTI — position and weather

sailwx.info

Track history (hours):
 
Tides and Currents Weather Stations Pressure Air Temp Water Temp Dewpoint Dewpoint Depression Visibility Wind Speed Wind Dir Waves Ship Positions

Eems Servant

Last reported at 2014-Dec-20 20:33 UTC. Time now 2014-Dec-20 20:53 UTC.
Position N 51°54' E 004°28'.

Length 87 m; draft 2.9 m.

Type: Cargo ship. MMSI: 246236000.

Date/timePositionNaut miles runAvg speedWind from/ knotsBaromVisibWave heightAir tempDewpointWater temp
2014-Dec-20 20:33N 51°54' E 004°28'0 0.0
2014-Dec-20 19:33N 51°54' E 004°28'0 0.0
2014-Dec-20 18:32N 51°54' E 004°28'0 0.0
2014-Dec-20 17:33N 51°54' E 004°28'0 0.0
2014-Dec-20 16:33N 51°54' E 004°28'0 0.0
2014-Dec-20 15:33N 51°54' E 004°28'0 0.0
2014-Dec-20 14:33N 51°54' E 004°28'0 0.0
2014-Dec-20 13:32N 51°54' E 004°28'0 0.0
2014-Dec-20 12:33N 51°54' E 004°28'0 0.0
2014-Dec-20 11:33N 51°54' E 004°28'0 0.0
2014-Dec-20 10:33N 51°54' E 004°28'0 0.0
2014-Dec-20 09:33N 51°54' E 004°28'0 0.0
2014-Dec-20 08:32N 51°54' E 004°28'0 0.0
2014-Dec-20 07:32N 51°54' E 004°28'0 0.0
2014-Dec-20 06:32N 51°54' E 004°28'0 0.0
2014-Dec-20 05:33N 51°54' E 004°28'0 0.0
2014-Dec-20 04:32N 51°54' E 004°28'0 0.0
2014-Dec-20 03:33N 51°54' E 004°28'0 0.0
2014-Dec-20 02:32N 51°54' E 004°28'0 0.0
2014-Dec-20 01:32N 51°54' E 004°28'0 0.0
2014-Dec-20 00:32N 51°54' E 004°28'0 0.0
2014-Dec-19 23:33N 51°54' E 004°28'0 0.0
2014-Dec-19 22:33N 51°54' E 004°28'0 0.0
2014-Dec-19 21:32N 51°54' E 004°28'0 0.0
2014-Dec-19 20:32N 51°54' E 004°28'0 0.0
2014-Dec-19 19:32N 51°54' E 004°28'0 0.0
2014-Dec-19 18:32N 51°54' E 004°28'0 0.0
2014-Dec-19 17:32N 51°54' E 004°28'0 0.0
2014-Dec-19 16:32N 51°54' E 004°28'0 0.0
2014-Dec-19 15:32N 51°54' E 004°28'0 0.0
2014-Dec-19 14:32N 51°54' E 004°28'0 0.0
2014-Dec-19 13:32N 51°54' E 004°28'0 0.0
2014-Dec-19 12:32N 51°54' E 004°28'0 0.0
2014-Dec-19 11:32N 51°54' E 004°28'0 0.0
2014-Dec-19 10:32N 51°54' E 004°28'0 0.0
2014-Dec-19 09:32N 51°54' E 004°28'0 0.0
2014-Dec-19 08:32N 51°54' E 004°28'0 0.0
2014-Dec-19 07:32N 51°54' E 004°28'0 0.0
2014-Dec-19 06:32N 51°54' E 004°28'0 0.0
2014-Dec-19 05:32N 51°54' E 004°28'0 0.0
2014-Dec-19 04:32N 51°54' E 004°28'0 0.0
2014-Dec-19 03:32N 51°54' E 004°28'0 0.0
2014-Dec-19 02:32N 51°54' E 004°28'0 0.0
2014-Dec-19 01:32N 51°54' E 004°28'0 0.0
2014-Dec-19 00:32N 51°54' E 004°28'0 0.0
2014-Dec-18 23:32N 51°54' E 004°28'0 0.0
2014-Dec-18 22:32N 51°54' E 004°28'0 0.0
2014-Dec-18 21:32N 51°54' E 004°28'0 0.0
2014-Dec-18 20:32N 51°54' E 004°28'0 0.0
2014-Dec-18 19:32N 51°54' E 004°28'0 0.0
2014-Dec-18 18:32N 51°54' E 004°28'0 0.0
2014-Dec-18 17:32N 51°54' E 004°28'0 0.0
2014-Dec-18 16:32N 51°54' E 004°28'0 0.0
2014-Dec-18 15:32N 51°54' E 004°28'0 0.0
2014-Dec-18 14:32N 51°54' E 004°28'0 0.0
2014-Dec-18 13:32N 51°54' E 004°28'0 0.0
2014-Dec-18 12:32N 51°54' E 004°28'0 0.0
2014-Dec-18 11:32N 51°54' E 004°28'0 0.0
2014-Dec-18 10:32N 51°54' E 004°28'0 0.0
2014-Dec-18 09:32N 51°54' E 004°28'0 0.0
2014-Dec-18 08:32N 51°54' E 004°28'0 0.0
2014-Dec-18 07:32N 51°54' E 004°28'0 0.0
2014-Dec-18 06:34N 51°54' E 004°28'7 6.9
2014-Dec-18 05:34N 51°54' E 004°17'7 7.3
2014-Dec-18 04:34N 51°58' E 004°08'8 7.9
2014-Dec-18 03:33N 51°59' E 003°55'11 9.6
2014-Dec-18 02:27N 51°57' E 003°38'1010.1
2014-Dec-18 01:26N 51°54' E 003°22'910.0
2014-Dec-18 00:33N 51°46' E 003°16'1110.4
2014-Dec-17 23:32N 51°36' E 003°23'1111.2
2014-Dec-17 22:34N 51°27' E 003°32'9 9.4
2014-Dec-17 21:34N 51°22' E 003°45'4 3.7
2014-Dec-17 20:32N 51°20' E 003°49'0 0.4
2014-Dec-17 19:29N 51°19' E 003°50'0 0.0
2014-Dec-17 18:33N 51°19' E 003°50'0 0.0
2014-Dec-17 17:33N 51°19' E 003°50'0 0.0
2014-Dec-17 16:33N 51°19' E 003°50'0 0.0
2014-Dec-17 15:33N 51°19' E 003°50'0 0.0
2014-Dec-17 14:33N 51°19' E 003°50'0 0.0
2014-Dec-17 13:33N 51°19' E 003°50'0 0.0
2014-Dec-17 12:33N 51°19' E 003°50'0 0.0
2014-Dec-17 11:34N 51°19' E 003°50'0 0.0
2014-Dec-17 10:33N 51°19' E 003°50'0 0.0
2014-Dec-17 09:33N 51°19' E 003°50'0 0.0
2014-Dec-17 08:34N 51°19' E 003°50'0 0.0
2014-Dec-17 07:34N 51°19' E 003°50'0 0.0
2014-Dec-17 06:34N 51°19' E 003°50'0 0.0
2014-Dec-17 05:34N 51°19' E 003°50'0 0.0
2014-Dec-17 04:33N 51°19' E 003°50'0 0.0
2014-Dec-17 03:34N 51°19' E 003°50'0 0.0
2014-Dec-17 02:33N 51°19' E 003°50'0 0.0
2014-Dec-17 01:33N 51°19' E 003°50'0 0.0
2014-Dec-17 00:33N 51°19' E 003°50'0 0.0
2014-Dec-16 23:33N 51°19' E 003°50'0 0.0
2014-Dec-16 22:34N 51°19' E 003°50'0 0.0
2014-Dec-16 21:34N 51°19' E 003°50'0 0.0
2014-Dec-16 20:34N 51°19' E 003°50'0 0.0
2014-Dec-16 19:33N 51°19' E 003°50'0 0.0
2014-Dec-16 18:33N 51°19' E 003°50'0 0.0
2014-Dec-16 17:34N 51°19' E 003°50'0 0.0
2014-Dec-16 16:34N 51°19' E 003°50'0 0.0
2014-Dec-16 15:33N 51°19' E 003°50'0 0.0
2014-Dec-16 14:34N 51°19' E 003°50'0 0.0
2014-Dec-16 13:33N 51°19' E 003°50'0 0.0
2014-Dec-16 12:34N 51°19' E 003°50'0 0.0
2014-Dec-16 11:34N 51°19' E 003°50'2 2.0
2014-Dec-16 10:33N 51°21' E 003°48'8 7.6
2014-Dec-16 09:33N 51°25' E 003°38'8 7.8
2014-Dec-16 08:34N 51°30' E 003°28'8 8.3
2014-Dec-16 07:33N 51°37' E 003°21'9 8.7
2014-Dec-16 06:33N 51°45' E 003°14'71 7.0
2014-Dec-15 20:22N 52°52' E 003°51'16 7.3
2014-Dec-15 18:10N 53°03' E 004°10'60 6.7
2014-Dec-15 09:20N 53°59' E 004°46'5 6.5
2014-Dec-15 08:31N 54°04' E 004°46'  
Track history (hours):
 
Tides and Currents Weather Stations Pressure Air Temp Water Temp Dewpoint Dewpoint Depression Visibility Wind Speed Wind Dir Waves Ship Positions

Eems Servant

Last reported at 2014-Dec-20 20:33 UTC. Time now 2014-Dec-20 20:53 UTC.
Position N 51°54' E 004°28'.

Length 87 m; draft 2.9 m.

Type: Cargo ship. MMSI: 246236000.

Date/timePositionNaut miles runAvg speedWind from/ knotsBaromVisibWave heightAir tempDewpointWater temp
2014-Dec-20 20:33N 51°54' E 004°28'0 0.0
2014-Dec-20 19:33N 51°54' E 004°28'0 0.0
2014-Dec-20 18:32N 51°54' E 004°28'0 0.0
2014-Dec-20 17:33N 51°54' E 004°28'0 0.0
2014-Dec-20 16:33N 51°54' E 004°28'0 0.0
2014-Dec-20 15:33N 51°54' E 004°28'0 0.0
2014-Dec-20 14:33N 51°54' E 004°28'0 0.0
2014-Dec-20 13:32N 51°54' E 004°28'0 0.0
2014-Dec-20 12:33N 51°54' E 004°28'0 0.0
2014-Dec-20 11:33N 51°54' E 004°28'0 0.0
2014-Dec-20 10:33N 51°54' E 004°28'0 0.0
2014-Dec-20 09:33N 51°54' E 004°28'0 0.0
2014-Dec-20 08:32N 51°54' E 004°28'0 0.0
2014-Dec-20 07:32N 51°54' E 004°28'0 0.0
2014-Dec-20 06:32N 51°54' E 004°28'0 0.0
2014-Dec-20 05:33N 51°54' E 004°28'0 0.0
2014-Dec-20 04:32N 51°54' E 004°28'0 0.0
2014-Dec-20 03:33N 51°54' E 004°28'0 0.0
2014-Dec-20 02:32N 51°54' E 004°28'0 0.0
2014-Dec-20 01:32N 51°54' E 004°28'0 0.0
2014-Dec-20 00:32N 51°54' E 004°28'0 0.0
2014-Dec-19 23:33N 51°54' E 004°28'0 0.0
2014-Dec-19 22:33N 51°54' E 004°28'0 0.0
2014-Dec-19 21:32N 51°54' E 004°28'0 0.0
2014-Dec-19 20:32N 51°54' E 004°28'0 0.0
2014-Dec-19 19:32N 51°54' E 004°28'0 0.0
2014-Dec-19 18:32N 51°54' E 004°28'0 0.0
2014-Dec-19 17:32N 51°54' E 004°28'0 0.0
2014-Dec-19 16:32N 51°54' E 004°28'0 0.0
2014-Dec-19 15:32N 51°54' E 004°28'0 0.0
2014-Dec-19 14:32N 51°54' E 004°28'0 0.0
2014-Dec-19 13:32N 51°54' E 004°28'0 0.0
2014-Dec-19 12:32N 51°54' E 004°28'0 0.0
2014-Dec-19 11:32N 51°54' E 004°28'0 0.0
2014-Dec-19 10:32N 51°54' E 004°28'0 0.0
2014-Dec-19 09:32N 51°54' E 004°28'0 0.0
2014-Dec-19 08:32N 51°54' E 004°28'0 0.0
2014-Dec-19 07:32N 51°54' E 004°28'0 0.0
2014-Dec-19 06:32N 51°54' E 004°28'0 0.0
2014-Dec-19 05:32N 51°54' E 004°28'0 0.0
2014-Dec-19 04:32N 51°54' E 004°28'0 0.0
2014-Dec-19 03:32N 51°54' E 004°28'0 0.0
2014-Dec-19 02:32N 51°54' E 004°28'0 0.0
2014-Dec-19 01:32N 51°54' E 004°28'0 0.0
2014-Dec-19 00:32N 51°54' E 004°28'0 0.0
2014-Dec-18 23:32N 51°54' E 004°28'0 0.0
2014-Dec-18 22:32N 51°54' E 004°28'0 0.0
2014-Dec-18 21:32N 51°54' E 004°28'0 0.0
2014-Dec-18 20:32N 51°54' E 004°28'0 0.0
2014-Dec-18 19:32N 51°54' E 004°28'0 0.0
2014-Dec-18 18:32N 51°54' E 004°28'0 0.0
2014-Dec-18 17:32N 51°54' E 004°28'0 0.0
2014-Dec-18 16:32N 51°54' E 004°28'0 0.0
2014-Dec-18 15:32N 51°54' E 004°28'0 0.0
2014-Dec-18 14:32N 51°54' E 004°28'0 0.0
2014-Dec-18 13:32N 51°54' E 004°28'0 0.0
2014-Dec-18 12:32N 51°54' E 004°28'0 0.0
2014-Dec-18 11:32N 51°54' E 004°28'0 0.0
2014-Dec-18 10:32N 51°54' E 004°28'0 0.0
2014-Dec-18 09:32N 51°54' E 004°28'0 0.0
2014-Dec-18 08:32N 51°54' E 004°28'0 0.0
2014-Dec-18 07:32N 51°54' E 004°28'0 0.0
2014-Dec-18 06:34N 51°54' E 004°28'7 6.9
2014-Dec-18 05:34N 51°54' E 004°17'7 7.3
2014-Dec-18 04:34N 51°58' E 004°08'8 7.9
2014-Dec-18 03:33N 51°59' E 003°55'11 9.6
2014-Dec-18 02:27N 51°57' E 003°38'1010.1
2014-Dec-18 01:26N 51°54' E 003°22'910.0
2014-Dec-18 00:33N 51°46' E 003°16'1110.4
2014-Dec-17 23:32N 51°36' E 003°23'1111.2
2014-Dec-17 22:34N 51°27' E 003°32'9 9.4
2014-Dec-17 21:34N 51°22' E 003°45'4 3.7
2014-Dec-17 20:32N 51°20' E 003°49'0 0.4
2014-Dec-17 19:29N 51°19' E 003°50'0 0.0
2014-Dec-17 18:33N 51°19' E 003°50'0 0.0
2014-Dec-17 17:33N 51°19' E 003°50'0 0.0
2014-Dec-17 16:33N 51°19' E 003°50'0 0.0
2014-Dec-17 15:33N 51°19' E 003°50'0 0.0
2014-Dec-17 14:33N 51°19' E 003°50'0 0.0
2014-Dec-17 13:33N 51°19' E 003°50'0 0.0
2014-Dec-17 12:33N 51°19' E 003°50'0 0.0
2014-Dec-17 11:34N 51°19' E 003°50'0 0.0
2014-Dec-17 10:33N 51°19' E 003°50'0 0.0
2014-Dec-17 09:33N 51°19' E 003°50'0 0.0
2014-Dec-17 08:34N 51°19' E 003°50'0 0.0
2014-Dec-17 07:34N 51°19' E 003°50'0 0.0
2014-Dec-17 06:34N 51°19' E 003°50'0 0.0
2014-Dec-17 05:34N 51°19' E 003°50'0 0.0
2014-Dec-17 04:33N 51°19' E 003°50'0 0.0
2014-Dec-17 03:34N 51°19' E 003°50'0 0.0
2014-Dec-17 02:33N 51°19' E 003°50'0 0.0
2014-Dec-17 01:33N 51°19' E 003°50'0 0.0
2014-Dec-17 00:33N 51°19' E 003°50'0 0.0
2014-Dec-16 23:33N 51°19' E 003°50'0 0.0
2014-Dec-16 22:34N 51°19' E 003°50'0 0.0
2014-Dec-16 21:34N 51°19' E 003°50'0 0.0
2014-Dec-16 20:34N 51°19' E 003°50'0 0.0
2014-Dec-16 19:33N 51°19' E 003°50'0 0.0
2014-Dec-16 18:33N 51°19' E 003°50'0 0.0
2014-Dec-16 17:34N 51°19' E 003°50'0 0.0
2014-Dec-16 16:34N 51°19' E 003°50'0 0.0
2014-Dec-16 15:33N 51°19' E 003°50'0 0.0
2014-Dec-16 14:34N 51°19' E 003°50'0 0.0
2014-Dec-16 13:33N 51°19' E 003°50'0 0.0
2014-Dec-16 12:34N 51°19' E 003°50'0 0.0
2014-Dec-16 11:34N 51°19' E 003°50'2 2.0
2014-Dec-16 10:33N 51°21' E 003°48'8 7.6
2014-Dec-16 09:33N 51°25' E 003°38'8 7.8
2014-Dec-16 08:34N 51°30' E 003°28'8 8.3
2014-Dec-16 07:33N 51°37' E 003°21'9 8.7
2014-Dec-16 06:33N 51°45' E 003°14'71 7.0
2014-Dec-15 20:22N 52°52' E 003°51'16 7.3
2014-Dec-15 18:10N 53°03' E 004°10'60 6.7
2014-Dec-15 09:20N 53°59' E 004°46'5 6.5
2014-Dec-15 08:31N 54°04' E 004°46'  

Dump ship's entire track history